createdAt,value
2023-03-27T00:00:10.240Z,100.00
2023-03-27T00:02:38.805Z,100.00
2023-03-27T00:05:05.576Z,100.00
2023-03-27T00:07:36.345Z,100.00
2023-03-27T00:10:02.608Z,100.00
2023-03-27T00:12:29.092Z,100.00
2023-03-27T00:14:55.636Z,100.00
2023-03-27T00:17:21.992Z,100.00
2023-03-27T00:19:53.010Z,100.00
2023-03-27T00:22:20.927Z,100.00
2023-03-27T00:24:48.026Z,100.00
2023-03-27T00:27:21.191Z,100.00
2023-03-27T00:29:49.953Z,100.00
2023-03-27T00:32:16.283Z,100.00
2023-03-27T00:34:42.617Z,100.00
2023-03-27T00:37:10.180Z,100.00
2023-03-27T00:39:37.086Z,100.00
2023-03-27T00:42:03.686Z,100.00
2023-03-27T00:44:33.875Z,100.00
2023-03-27T00:47:02.518Z,100.00
2023-03-27T00:49:31.692Z,100.00
2023-03-27T00:51:58.512Z,100.00
2023-03-27T00:54:29.323Z,100.00
2023-03-27T00:56:57.625Z,100.00
2023-03-27T00:59:26.704Z,100.00
2023-03-27T01:01:53.300Z,100.00
2023-03-27T01:04:20.880Z,100.00
2023-03-27T01:06:49.388Z,100.00
2023-03-27T01:09:20.841Z,100.00
2023-03-27T01:11:54.180Z,100.00
2023-03-27T01:14:42.677Z,100.00
2023-03-27T01:17:28.110Z,100.00
2023-03-27T01:20:25.438Z,100.00
2023-03-27T01:23:07.803Z,100.00
2023-03-27T01:25:41.401Z,100.00
2023-03-27T01:28:29.371Z,100.00
2023-03-27T01:31:04.474Z,100.00
2023-03-27T01:33:52.705Z,100.00
2023-03-27T01:36:25.431Z,100.00
2023-03-27T01:39:04.771Z,100.00
2023-03-27T01:41:42.228Z,100.00
2023-03-27T01:44:12.464Z,100.00
2023-03-27T01:47:01.908Z,100.00
2023-03-27T01:49:29.802Z,100.00
2023-03-27T01:51:59.217Z,100.00
2023-03-27T01:54:28.399Z,100.00
2023-03-27T01:57:01.593Z,100.00
2023-03-27T01:59:33.116Z,100.00
2023-03-27T02:02:21.551Z,100.00
2023-03-27T02:05:01.045Z,100.00
2023-03-27T02:10:03.418Z,100.00
2023-03-27T02:12:33.803Z,100.00
2023-03-27T02:21:59.775Z,100.00
2023-03-27T02:24:27.044Z,100.00
2023-03-27T02:27:00.029Z,100.00
2023-03-27T02:37:33.773Z,100.00
2023-03-27T02:40:42.150Z,100.00
2023-03-27T02:43:28.051Z,100.00
2023-03-27T02:46:20.725Z,100.00
2023-03-27T02:48:59.054Z,100.00
2023-03-27T02:51:48.000Z,100.00
2023-03-27T02:54:33.887Z,100.00
2023-03-27T02:57:04.728Z,100.00
2023-03-27T02:59:48.693Z,100.00
2023-03-27T03:02:19.912Z,100.00
2023-03-27T03:05:07.444Z,100.00
2023-03-27T03:07:39.712Z,100.00
2023-03-27T03:10:09.588Z,100.00
2023-03-27T03:12:37.387Z,100.00
2023-03-27T03:15:07.383Z,100.00
2023-03-27T03:17:34.327Z,100.00
2023-03-27T03:20:08.700Z,100.00
2023-03-27T03:22:36.042Z,100.00
2023-03-27T03:25:03.466Z,100.00
2023-03-27T03:27:30.650Z,100.00
2023-03-27T03:30:06.984Z,100.00
2023-03-27T03:32:39.821Z,100.00
2023-03-27T03:35:09.377Z,100.00
2023-03-27T03:37:38.965Z,100.00
2023-03-27T03:40:11.365Z,100.00
2023-03-27T03:42:46.438Z,100.00
2023-03-27T03:45:12.980Z,100.00
2023-03-27T03:47:40.067Z,100.00
2023-03-27T03:50:08.870Z,100.00
2023-03-27T03:52:37.474Z,100.00
2023-03-27T03:55:05.520Z,100.00
2023-03-27T03:57:33.632Z,100.00
2023-03-27T04:00:08.133Z,100.00
2023-03-27T04:02:44.056Z,100.00
2023-03-27T04:05:12.962Z,100.00
2023-03-27T04:07:40.614Z,100.00
2023-03-27T04:10:32.065Z,100.00
2023-03-27T04:13:00.620Z,100.00
2023-03-27T04:15:30.438Z,100.00
2023-03-27T04:17:59.855Z,100.00
2023-03-27T04:20:26.594Z,100.00
2023-03-27T04:22:54.397Z,100.00
2023-03-27T04:25:22.956Z,100.00
2023-03-27T04:27:53.144Z,100.00
2023-03-27T04:30:33.309Z,100.00
2023-03-27T04:33:19.064Z,100.00
2023-03-27T04:36:09.548Z,100.00
2023-03-27T04:38:45.233Z,100.00
2023-03-27T04:41:14.846Z,100.00
2023-03-27T04:43:42.719Z,100.00
2023-03-27T04:46:09.631Z,100.00
2023-03-27T04:48:39.247Z,100.00
2023-03-27T04:51:31.942Z,100.00
2023-03-27T04:54:06.823Z,100.00
2023-03-27T04:56:40.314Z,100.00
2023-03-27T04:59:07.229Z,100.00
2023-03-27T05:01:35.648Z,100.00
2023-03-27T05:04:21.155Z,100.00
2023-03-27T05:07:11.753Z,100.00
2023-03-27T05:09:39.112Z,100.00
2023-03-27T05:12:06.939Z,100.00
2023-03-27T05:14:39.082Z,100.00
2023-03-27T05:17:06.856Z,100.00
2023-03-27T05:19:39.682Z,100.00
2023-03-27T05:22:07.241Z,100.00
2023-03-27T05:24:37.352Z,100.00
2023-03-27T05:27:08.520Z,100.00
2023-03-27T05:29:47.391Z,100.00
2023-03-27T05:32:15.014Z,100.00
2023-03-27T05:35:05.596Z,100.00
2023-03-27T05:37:38.054Z,100.00
2023-03-27T05:40:15.614Z,100.00
2023-03-27T05:42:46.296Z,100.00
2023-03-27T05:45:13.326Z,100.00
2023-03-27T05:47:55.699Z,100.00
2023-03-27T05:50:25.040Z,100.00
2023-03-27T05:53:01.584Z,100.00
2023-03-27T05:55:35.414Z,100.00
2023-03-27T05:58:06.148Z,100.00
2023-03-27T06:00:33.915Z,100.00
2023-03-27T06:03:02.037Z,100.00
2023-03-27T06:06:00.682Z,100.00
2023-03-27T06:08:30.787Z,100.00
2023-03-27T06:10:58.145Z,100.00
2023-03-27T06:13:37.687Z,100.00
2023-03-27T06:16:08.390Z,100.00
2023-03-27T06:18:41.014Z,100.00
2023-03-27T06:21:08.457Z,100.00
2023-03-27T06:23:35.421Z,100.00
2023-03-27T06:26:08.399Z,100.00
2023-03-27T06:28:35.059Z,100.00
2023-03-27T06:31:02.000Z,100.00
2023-03-27T06:33:48.359Z,100.00
2023-03-27T06:36:32.126Z,100.00
2023-03-27T06:39:02.430Z,100.00
2023-03-27T06:41:29.619Z,100.00
2023-03-27T06:44:05.582Z,100.00
2023-03-27T06:46:51.649Z,100.00
2023-03-27T06:49:39.089Z,100.00
2023-03-27T06:52:11.589Z,100.00
2023-03-27T06:54:38.965Z,100.00
2023-03-27T14:28:57.526Z,44.98
2023-03-27T14:32:14.062Z,44.92
2023-03-27T14:34:54.275Z,44.88
2023-03-27T14:37:47.858Z,44.37
2023-03-27T14:40:30.556Z,44.98
2023-03-27T14:42:59.896Z,45.44
2023-03-27T14:45:33.294Z,45.27
2023-03-27T14:48:08.343Z,44.98
2023-03-27T14:50:55.122Z,44.57
2023-03-27T14:53:27.003Z,45.18
2023-03-27T14:56:22.128Z,45.13
2023-03-27T14:59:00.977Z,45.57
2023-03-27T15:01:35.614Z,45.85
2023-03-27T15:04:05.784Z,46.11
2023-03-27T15:06:36.788Z,46.44
2023-03-27T15:09:05.711Z,46.89
2023-03-27T15:11:56.521Z,47.86
2023-03-27T15:14:36.820Z,47.73
2023-03-27T15:17:06.936Z,47.82
2023-03-27T15:20:10.432Z,47.91
2023-03-27T15:22:40.612Z,48.34
2023-03-27T15:25:19.641Z,48.65
2023-03-27T15:27:53.081Z,48.54
2023-03-27T15:30:37.566Z,48.76
2023-03-27T15:33:05.897Z,48.77
2023-03-27T15:35:40.386Z,48.96
2023-03-27T15:38:08.202Z,48.94
2023-03-27T15:40:41.777Z,49.15
2023-03-27T15:43:12.693Z,49.43
2023-03-27T15:46:04.581Z,49.49
2023-03-27T15:48:38.019Z,49.74
2023-03-27T15:51:05.772Z,49.81
2023-03-27T15:53:36.772Z,50.23
2023-03-27T15:56:15.004Z,50.50
2023-03-27T15:58:51.754Z,50.46
2023-03-27T16:01:23.935Z,50.57
2023-03-27T16:03:52.213Z,50.67
2023-03-27T16:06:28.275Z,50.63
2023-03-27T16:08:55.391Z,50.80
2023-03-27T16:11:54.297Z,50.94
2023-03-27T16:14:29.590Z,51.02
2023-03-27T16:17:13.547Z,51.01
2023-03-27T16:19:49.953Z,51.08
2023-03-27T16:22:24.657Z,51.20
2023-03-27T16:24:51.959Z,51.41
2023-03-27T16:27:24.432Z,51.82
2023-03-27T16:29:51.785Z,52.14
2023-03-27T16:32:22.298Z,52.15
2023-03-27T16:34:51.580Z,52.13
2023-03-27T16:37:23.151Z,52.33
2023-03-27T16:39:50.752Z,52.80
2023-03-27T16:42:19.150Z,53.03
2023-03-27T16:44:46.686Z,53.42
2023-03-27T16:47:14.066Z,53.82
2023-03-27T16:49:41.214Z,53.64
2023-03-27T16:52:08.326Z,53.79
2023-03-27T16:54:35.501Z,53.64
2023-03-27T16:57:02.834Z,53.73
2023-03-27T16:59:30.497Z,53.56
2023-03-27T17:01:58.628Z,53.50
2023-03-27T17:04:27.738Z,53.60
2023-03-27T17:06:55.124Z,53.59
2023-03-27T17:09:22.781Z,53.30
2023-03-27T17:11:49.811Z,53.22
2023-03-27T17:14:18.092Z,53.07
2023-03-27T17:16:45.348Z,53.09
2023-03-27T17:19:13.037Z,53.13
2023-03-27T17:21:41.113Z,53.11
2023-03-27T17:24:09.292Z,53.15
2023-03-27T17:26:38.235Z,53.20
2023-03-27T17:29:13.928Z,53.13
2023-03-27T17:31:41.577Z,53.34
2023-03-27T17:34:08.711Z,53.33
2023-03-27T17:36:44.913Z,53.52
2023-03-27T17:39:14.687Z,53.59
2023-03-27T17:41:41.724Z,53.67
2023-03-27T17:44:11.129Z,53.79
2023-03-27T17:46:41.157Z,53.97
2023-03-27T17:49:08.188Z,54.10
2023-03-27T17:51:35.886Z,54.29
2023-03-27T17:54:05.957Z,54.34
2023-03-27T17:56:33.053Z,54.55
2023-03-27T17:59:01.126Z,54.75
2023-03-27T18:01:32.747Z,54.71
2023-03-27T18:04:00.673Z,54.87
2023-03-27T18:06:27.899Z,55.08
2023-03-27T18:08:54.841Z,55.04
2023-03-27T18:11:21.942Z,55.23
2023-03-27T18:13:53.031Z,55.30
2023-03-27T18:16:21.867Z,55.47
2023-03-27T18:18:52.168Z,55.57
2023-03-27T18:21:19.644Z,55.74
2023-03-27T18:23:47.060Z,55.86
2023-03-27T18:26:14.332Z,56.07
2023-03-27T18:28:41.294Z,56.38
2023-03-27T18:31:10.092Z,56.56
2023-03-27T18:33:37.324Z,56.73
2023-03-27T18:36:10.800Z,56.92
2023-03-27T18:38:41.965Z,57.08
2023-03-27T18:41:11.225Z,57.40
2023-03-27T18:43:48.079Z,57.68
2023-03-27T18:46:17.301Z,57.84
2023-03-27T18:48:45.512Z,57.89
2023-03-27T18:51:14.111Z,57.91
2023-03-27T18:53:41.909Z,57.97
2023-03-27T18:56:13.724Z,57.99
2023-03-27T18:58:42.906Z,58.03
2023-03-27T19:01:10.172Z,58.16
2023-03-27T19:03:39.241Z,58.20
2023-03-27T19:06:07.461Z,58.28
2023-03-27T19:08:37.465Z,58.43
2023-03-27T19:11:12.597Z,58.61
2023-03-27T19:13:58.013Z,58.76
2023-03-27T19:16:30.784Z,58.90
2023-03-27T19:19:16.446Z,58.91
2023-03-27T19:21:52.542Z,59.01
2023-03-27T19:24:40.519Z,59.01
2023-03-27T19:27:07.827Z,59.03
2023-03-27T19:29:52.049Z,58.97
2023-03-27T19:32:19.330Z,59.02
2023-03-27T19:34:46.357Z,59.01
2023-03-27T19:37:13.783Z,59.10
2023-03-27T19:39:40.983Z,59.13
2023-03-27T19:42:08.169Z,59.17
2023-03-27T19:44:38.232Z,59.07
2023-03-27T19:47:06.120Z,59.20
2023-03-27T19:49:34.899Z,59.30
2023-03-27T19:52:20.718Z,59.91
2023-03-27T19:54:56.592Z,60.41
2023-03-27T19:57:24.907Z,60.55
2023-03-27T19:59:52.092Z,60.62
2023-03-27T20:02:19.449Z,61.24
2023-03-27T20:04:48.843Z,61.85
2023-03-27T20:07:16.298Z,62.12
2023-03-27T20:09:44.403Z,62.39
2023-03-27T20:12:12.501Z,62.57
2023-03-27T20:14:51.354Z,63.09
2023-03-27T20:17:29.618Z,63.61
2023-03-27T20:19:57.207Z,64.17
2023-03-27T20:22:29.812Z,64.61
2023-03-27T20:24:57.572Z,65.20
2023-03-27T20:27:24.861Z,65.63
2023-03-27T20:29:52.337Z,66.08
2023-03-27T20:32:19.896Z,66.35
2023-03-27T20:34:49.075Z,66.66
2023-03-27T20:37:16.667Z,67.04
2023-03-27T20:39:54.227Z,67.48
2023-03-27T20:42:23.251Z,67.76
2023-03-27T20:44:58.517Z,68.01
2023-03-27T20:47:26.017Z,68.29
2023-03-27T20:49:53.103Z,68.41
2023-03-27T20:52:20.092Z,68.58
2023-03-27T20:54:47.960Z,69.10
2023-03-27T20:57:16.921Z,69.78
2023-03-27T20:59:47.476Z,70.26
2023-03-27T21:02:21.233Z,70.74
2023-03-27T21:04:48.767Z,70.99
2023-03-27T21:07:16.185Z,71.25
2023-03-27T21:09:45.421Z,71.39
2023-03-27T21:12:12.636Z,71.61
2023-03-27T21:14:40.089Z,71.85
2023-03-27T21:17:08.641Z,72.15
2023-03-27T21:19:36.335Z,72.51
2023-03-27T21:22:03.387Z,72.83
2023-03-27T21:24:31.181Z,73.13
2023-03-27T21:27:00.089Z,73.26
2023-03-27T21:29:27.774Z,72.91
2023-03-27T21:31:55.167Z,72.27
2023-03-27T21:34:22.666Z,71.36
2023-03-27T21:36:52.032Z,70.51
2023-03-27T21:39:19.386Z,69.67
2023-03-27T21:41:49.084Z,68.97
2023-03-27T21:44:16.461Z,68.61
2023-03-27T21:46:43.645Z,68.31
2023-03-27T21:49:10.993Z,68.26
2023-03-27T21:51:39.074Z,68.21
2023-03-27T21:54:11.647Z,68.35
2023-03-27T21:56:39.477Z,68.40
2023-03-27T21:59:06.654Z,68.35
2023-03-27T22:01:35.644Z,68.39
2023-03-27T22:04:03.124Z,68.24
2023-03-27T22:06:30.829Z,68.32
2023-03-27T22:08:58.032Z,68.30
2023-03-27T22:11:25.367Z,68.45
2023-03-27T22:13:52.387Z,68.44
2023-03-27T22:16:20.573Z,68.49
2023-03-27T22:18:48.669Z,68.67
2023-03-27T22:21:22.978Z,68.61
2023-03-27T22:23:52.074Z,68.60
2023-03-27T22:26:19.952Z,68.62
2023-03-27T22:28:49.937Z,68.58
2023-03-27T22:31:17.521Z,68.56
2023-03-27T22:33:44.664Z,68.57
2023-03-27T22:36:11.971Z,68.58
2023-03-27T22:38:41.682Z,68.53
2023-03-27T22:41:10.899Z,68.44
2023-03-27T22:43:38.220Z,68.54
2023-03-27T22:46:15.967Z,68.44
2023-03-27T22:48:43.527Z,68.55
2023-03-27T22:51:11.222Z,68.55
2023-03-27T22:53:44.937Z,68.56
2023-03-27T22:56:12.592Z,68.47
2023-03-27T22:58:39.660Z,68.53
2023-03-27T23:01:07.603Z,68.61
2023-03-27T23:03:34.668Z,68.50
2023-03-27T23:06:02.015Z,68.45
2023-03-27T23:08:32.301Z,68.48
2023-03-27T23:11:01.230Z,68.55
2023-03-27T23:13:34.339Z,68.67
2023-03-27T23:16:03.205Z,69.00
2023-03-27T23:18:30.307Z,69.23
2023-03-27T23:21:09.546Z,69.52
2023-03-27T23:23:37.325Z,69.60
2023-03-27T23:26:05.074Z,69.86
2023-03-27T23:28:34.305Z,70.01
2023-03-27T23:31:03.044Z,70.13
2023-03-27T23:33:39.726Z,70.47
2023-03-27T23:36:13.508Z,70.63
2023-03-27T23:38:42.051Z,70.77
2023-03-27T23:41:10.610Z,70.94
2023-03-27T23:43:37.621Z,71.02
2023-03-27T23:46:11.340Z,71.23
2023-03-27T23:48:39.433Z,71.29
2023-03-27T23:51:06.796Z,71.42
2023-03-27T23:53:36.427Z,71.62
2023-03-27T23:56:04.017Z,71.70
2023-03-27T23:58:32.908Z,71.82
